Leicester, NC

12:05 AM EDT on March 28, 2015 (GMT -0400)
Franklin | | Change Station
CLOSE
Current Station
Airport
Location: Franklin,
Elevation: 2021 ft
Nearby Weather Stations

Elev 2021 ft 35.22 °N, 83.42 °W | Updated 10 minutes ago

Overcast
Overcast
34 °F
Feels Like 34 °F
N
0
Wind Variable Wind from North
Gusts mph

Today
High -- | Low -- °F
--% Chance of Precip.
Yesterday
High -- | Low -- °F
Precip. -- in
7:23 AM 7:49 PM
First Quarter, 58% visible
Pressure 29.96 in
Visibility 10.0 miles
Clouds
Dew Point 28 °F
Humidity 79%
Rainfall 0.20 in
Snow Depth Not available.
UV Not available.
Pollen 8.30 out of 12
Air Quality Not available.
Flu Activity Not available.
METAR K1A5 280355Z AUTO 00000KT 10SM 01/M02 A2996 RMK AO2 T00121020

More Conditions Fewer Conditions

Pressure 29.96 in
Visibility 10.0 miles
Clouds
Dew Point 28 °F
Humidity 79%
Rainfall 0.20 in
Snow Depth Not available.
UV Not available.
Pollen 8.30 out of 12
Air Quality Not available.
Flu Activity Not available.
METAR K1A5 280355Z AUTO 00000KT 10SM 01/M02 A2996 RMK AO2 T00121020

More Conditions Fewer Conditions

10-Day Weather Forecast

Almanac

Astronomy

Mar. 28, 2015 Rise Set
Actual Time
Civil Twilight
Nautical Twilight
Astronomical Twilight
Moon
Length of Visible Light
Length of Day
Tomorrow will be .
, % of the Moon is Illuminated

Today's Extremes

State Highs State Lows

Community

WunderPhotos

Upload Photos

1,808,931 photos uploaded!

WunderBlogs® & News

Nearby

Air Quality

  Air Quality AQ Index Pollutant
Not available.

Snow Depth

Station Depth Elevation

Earthquake Activity

City Distance Mag. Time & Date
Minimum magnitude displayed is 2.5.

Coastal Water Temperatures

Place Temperature

Stations

Nearby Weather Stations

Station Location Temp. Windchill Dew Point Humidity Wind Precip. Elev Updated Type
                   
Freeze Warning, Freeze Watch
Statement as of 6:54 PM EDT on March 27, 2015

... Freeze warning remains in effect from midnight tonight to noon
EDT Saturday...
... Freeze watch remains in effect from late Saturday night
through Sunday morning...

* locations... the central and southern mountains of North
Carolina and Rabun County Georgia.

* Temperatures... lows tonight and Saturday night from the upper
teens to middle 20s.

* Impacts... very cold temperatures will kill sensitive
vegetation that has already started to grow this season.

Precautionary/preparedness actions...

A freeze warning means sub-freezing temperatures are imminent or
highly likely. These conditions will kill crops and other
sensitive vegetation.

A freeze watch means sub-freezing temperatures are possible.
These conditions could kill crops and other sensitive vegetation.